Time;durP1;ratioP1;P1;durP2;ratioP2;P2;SDS_P1;SDS_P2;PMS_P1;PMS_P2;Temp;Humidity;BMP_temperature;BMP_pressure;BME280_temperature;BME280_humidity;BME280_pressure;Samples;Min_cycle;Max_cycle;Signal;HPM_P1;HPM_P2
2023/03/17 00:01:34;;;;;;;7.30;2.95;;;2.40;99.90;;;;;;5014607;28;20105;-78
2023/03/17 00:04:00;;;;;;;5.68;1.73;;;;;;;;;;5017590;28;20037;-78
2023/03/17 00:06:30;;;;;;;4.70;2.10;;;;;;;;;;5017567;28;20021;-76
2023/03/17 00:08:56;;;;;;;5.65;2.15;;;;;;;;;;5021497;28;20041;-76
2023/03/17 00:11:22;;;;;;;7.43;2.65;;;;;;;;;;5017051;28;20029;-76
2023/03/17 00:13:48;;;;;;;2.85;1.63;;;;;;;;;;5014285;28;20650;-76
2023/03/17 00:16:28;;;;;;;2.47;1.60;;;;;;;;;;5014981;28;20029;-76
2023/03/17 00:18:54;;;;;;;3.45;2.30;;;;;;;;;;5020566;28;20033;-77
2023/03/17 00:21:23;;;;;;;2.83;1.98;;;;;;;;;;5014285;28;20116;-77
2023/03/17 00:23:53;;;;;;;3.83;2.30;;;;;;;;;;5017185;28;21052;-76
2023/03/17 00:26:19;;;;;;;3.08;2.03;;;;;;;;;;5021198;28;20123;-76
2023/03/17 00:28:45;;;;;;;4.90;1.90;;;;;;;;;;5011266;28;20112;-77
2023/03/17 00:31:16;;;;;;;5.50;2.72;;;;;;;;;;5016356;28;20036;-78
2023/03/17 00:33:43;;;;;;;3.45;2.15;;;;;;;;;;5021116;28;20037;-78
2023/03/17 00:36:13;;;;;;;4.18;2.05;;;;;;;;;;5025553;28;20051;-75
2023/03/17 00:38:39;;;;;;;5.68;2.38;;;;;;;;;;5026661;28;20033;-76
2023/03/17 00:41:05;;;;;;;4.10;2.20;;;;;;;;;;5025248;28;20029;-76
2023/03/17 00:43:31;;;;;;;3.17;1.77;;;;;;;;;;5019098;28;20924;-78
2023/03/17 00:45:57;;;;;;;7.88;2.40;;;;;;;;;;5026811;28;20033;-80
2023/03/17 00:48:23;;;;;;;5.70;2.63;;;;;;;;;;5019451;28;20203;-78
2023/03/17 00:50:49;;;;;;;3.00;1.98;;;;;;;;;;5023303;28;20033;-78
2023/03/17 00:53:17;;;;;;;4.47;1.52;;;;;;;;;;5023729;28;20044;-78
2023/03/17 00:55:44;;;;;;;4.63;1.75;;;;;;;;;;5027070;28;20060;-77
2023/03/17 00:58:31;;;;;;;3.63;2.45;;;;;;;;;;5025271;28;20035;-77
2023/03/17 01:00:57;;;;;;;4.40;2.20;;;2.30;99.90;;;;;;5023983;28;20040;-76
2023/03/17 01:03:23;;;;;;;6.32;2.22;;;3.00;99.90;;;;;;5022576;28;20576;-78
2023/03/17 01:05:51;;;;;;;4.70;2.72;;;;;;;;;;5030795;28;20037;-78
2023/03/17 01:08:17;;;;;;;2.95;1.90;;;;;;;;;;5028512;28;20099;-79
2023/03/17 01:10:43;;;;;;;4.78;2.40;;;;;;;;;;5023909;28;20044;-79
2023/03/17 01:13:13;;;;;;;3.33;1.88;;;;;;;;;;5018822;28;20128;-79
2023/03/17 01:15:41;;;;;;;4.28;2.13;;;;;;;;;;5027135;28;20034;-77
2023/03/17 01:18:10;;;;;;;4.85;1.75;;;;;;;;;;5019557;28;20560;-79
2023/03/17 01:20:36;;;;;;;4.10;2.42;;;;;;;;;;5022502;28;20457;-78
2023/03/17 01:23:02;;;;;;;4.38;2.85;;;;;;;;;;5027318;28;20021;-79
2023/03/17 01:25:29;;;;;;;4.40;2.45;;;;;;;;;;5027512;28;20045;-79
2023/03/17 01:27:56;;;;;;;3.05;1.60;;;3.20;99.90;;;;;;5020820;28;20037;-78
2023/03/17 01:30:27;;;;;;;4.75;2.03;;;;;;;;;;5021043;28;20035;-79
2023/03/17 01:32:54;;;;;;;3.70;2.70;;;;;;;;;;5028239;28;20440;-79
2023/03/17 01:35:20;;;;;;;5.40;2.30;;;;;;;;;;5025298;28;20089;-80
2023/03/17 01:37:47;;;;;;;2.67;1.95;;;;;;;;;;5024958;28;20091;-79
2023/03/17 01:40:16;;;;;;;4.03;2.35;;;;;;;;;;5016636;28;20140;-78
2023/03/17 01:42:44;;;;;;;2.45;1.65;;;;;;;;;;5030512;28;20032;-80
2023/03/17 01:45:30;;;;;;;5.20;2.63;;;;;;;;;;5023146;28;20044;-78
2023/03/17 01:47:56;;;;;;;3.05;1.65;;;;;;;;;;5028205;28;20068;-81
2023/03/17 01:50:22;;;;;;;4.32;2.25;;;;;;;;;;5027368;28;20034;-78
2023/03/17 01:52:48;;;;;;;6.60;2.45;;;;;;;;;;5030250;28;20156;-80
2023/03/17 01:55:17;;;;;;;3.67;2.13;;;;;;;;;;5025433;28;20113;-79
2023/03/17 01:57:49;;;;;;;4.43;2.00;;;;;;;;;;5024899;28;20026;-78
2023/03/17 02:00:18;;;;;;;5.40;2.27;;;;;;;;;;5023185;28;20029;-81
2023/03/17 02:02:46;;;;;;;4.60;2.30;;;;;;;;;;5024718;28;20548;-79
2023/03/17 02:05:15;;;;;;;4.20;1.95;;;;;;;;;;5025851;28;20124;-79
2023/03/17 02:07:41;;;;;;;7.68;2.38;;;;;;;;;;5032575;28;20033;-78
2023/03/17 02:10:08;;;;;;;6.60;2.42;;;;;;;;;;5028498;28;20013;-80
2023/03/17 02:12:35;;;;;;;5.22;2.53;;;;;;;;;;5026924;28;20041;-78
2023/03/17 02:15:02;;;;;;;4.75;2.80;;;;;;;;;;5022534;28;20049;-78
2023/03/17 02:17:28;;;;;;;4.40;2.15;;;;;;;;;;5026762;28;20037;-78
2023/03/17 02:19:55;;;;;;;7.95;2.78;;;;;;;;;;5026856;28;20129;-78
2023/03/17 02:22:21;;;;;;;3.75;2.20;;;;;;;;;;5025423;28;20025;-78
2023/03/17 02:24:52;;;;;;;4.63;2.00;;;3.60;99.90;;;;;;5027017;28;20033;-77
2023/03/17 02:27:23;;;;;;;4.20;2.47;;;;;;;;;;5026209;28;20033;-78
2023/03/17 02:29:49;;;;;;;2.50;1.88;;;;;;;;;;5015615;28;20315;-80
2023/03/17 02:32:19;;;;;;;6.55;2.90;;;;;;;;;;5023790;28;20441;-81
2023/03/17 02:34:45;;;;;;;4.15;2.10;;;;;;;;;;5024591;28;20033;-79
2023/03/17 02:37:11;;;;;;;9.00;2.92;;;;;;;;;;5023193;28;20501;-80
2023/03/17 02:39:37;;;;;;;3.38;2.22;;;2.80;99.90;;;;;;5025497;28;20052;-79
2023/03/17 02:42:03;;;;;;;1.90;1.40;;;;;;;;;;5022289;28;20037;-78
2023/03/17 02:44:30;;;;;;;4.40;2.00;;;;;;;;;;5029575;28;20029;-79
2023/03/17 02:46:56;;;;;;;3.70;1.98;;;;;;;;;;5027427;28;20504;-79
2023/03/17 02:49:22;;;;;;;4.45;2.22;;;;;;;;;;5024635;28;20124;-79
2023/03/17 02:51:48;;;;;;;3.90;1.90;;;;;;;;;;5027799;28;20904;-78
2023/03/17 02:54:14;;;;;;;3.25;2.05;;;3.00;99.90;;;;;;5025409;28;20060;-79
2023/03/17 02:56:40;;;;;;;4.15;2.17;;;;;;;;;;5028944;28;20021;-79
2023/03/17 02:59:07;;;;;;;4.05;2.28;;;;;;;;;;5028047;28;20025;-79
2023/03/17 03:01:33;;;;;;;5.22;2.70;;;;;;;;;;5020661;28;20052;-79
2023/03/17 03:03:59;;;;;;;5.25;2.13;;;;;;;;;;5021992;28;20038;-79
2023/03/17 03:06:25;;;;;;;4.10;2.25;;;;;;;;;;5029958;28;20042;-79
2023/03/17 03:08:51;;;;;;;4.50;1.95;;;;;;;;;;5031251;28;20036;-78
2023/03/17 03:11:17;;;;;;;6.13;2.55;;;;;;;;;;5021471;28;20463;-79
2023/03/17 03:13:43;;;;;;;3.65;1.92;;;;;;;;;;5023551;28;20052;-79
2023/03/17 03:16:09;;;;;;;2.65;1.35;;;;;;;;;;5023034;28;20041;-78
2023/03/17 03:18:36;;;;;;;4.70;2.25;;;;;;;;;;5023130;28;20493;-79
2023/03/17 03:21:02;;;;;;;4.18;2.58;;;;;;;;;;5023838;28;20029;-80
2023/03/17 03:23:28;;;;;;;5.57;2.40;;;;;;;;;;5038669;28;20040;-80
2023/03/17 03:25:54;;;;;;;3.42;1.60;;;;;;;;;;5018614;28;20038;-79
2023/03/17 03:28:20;;;;;;;2.92;1.73;;;;;;;;;;5024174;28;20068;-78
2023/03/17 03:30:46;;;;;;;4.07;2.40;;;;;;;;;;5023689;28;20090;-78
2023/03/17 03:33:13;;;;;;;3.60;1.98;;;;;;;;;;5017855;28;20038;-78
2023/03/17 03:35:39;;;;;;;5.85;1.90;;;;;;;;;;5023160;28;20044;-78
2023/03/17 03:38:06;;;;;;;3.75;2.35;;;3.40;99.90;;;;;;5018003;28;20040;-78
2023/03/17 03:40:32;;;;;;;4.63;2.00;;;;;;;;;;5024931;28;20021;-78
2023/03/17 03:42:58;;;;;;;6.32;2.95;;;;;;;;;;5024285;28;20375;-79
2023/03/17 03:45:24;;;;;;;2.45;1.58;;;;;;;;;;5019685;28;20052;-77
2023/03/17 03:47:50;;;;;;;4.22;2.42;;;;;;;;;;5021925;28;20029;-79
2023/03/17 03:50:16;;;;;;;4.50;2.08;;;;;;;;;;5023532;28;20023;-79
2023/03/17 03:52:42;;;;;;;5.80;2.50;;;;;;;;;;5023136;28;20125;-78
2023/03/17 03:55:08;;;;;;;4.07;1.90;;;;;;;;;;5019873;28;20093;-78
2023/03/17 03:57:35;;;;;;;3.42;1.90;;;;;;;;;;5025131;28;20212;-78
2023/03/17 04:00:01;;;;;;;6.72;2.70;;;;;;;;;;5029622;28;20079;-76
2023/03/17 04:02:27;;;;;;;6.95;2.72;;;;;;;;;;5019744;28;20053;-77
2023/03/17 04:04:53;;;;;;;3.92;2.55;;;;;;;;;;5018506;28;20068;-77
2023/03/17 04:07:20;;;;;;;4.95;2.38;;;;;;;;;;5026705;28;20046;-78
2023/03/17 04:09:48;;;;;;;3.75;1.98;;;;;;;;;;5017846;28;20090;-79
2023/03/17 04:12:14;;;;;;;3.78;2.10;;;;;;;;;;5013896;28;20045;-76
2023/03/17 04:14:40;;;;;;;6.97;2.63;;;;;;;;;;5020821;28;20594;-79
2023/03/17 04:17:06;;;;;;;4.32;2.13;;;;;;;;;;5025325;28;20171;-78
2023/03/17 04:19:32;;;;;;;3.83;2.20;;;;;;;;;;5029474;28;20262;-78
2023/03/17 04:21:58;;;;;;;6.90;2.17;;;;;;;;;;5026640;28;20032;-77
2023/03/17 04:24:26;;;;;;;5.38;2.65;;;;;;;;;;5028503;28;20041;-79
2023/03/17 04:26:52;;;;;;;3.30;2.03;;;;;;;;;;5029885;28;20033;-78
2023/03/17 04:29:18;;;;;;;8.25;3.35;;;;;;;;;;5032903;28;20533;-79
2023/03/17 04:31:45;;;;;;;5.88;2.85;;;;;;;;;;5023531;28;20903;-79
2023/03/17 04:34:14;;;;;;;5.22;3.00;;;;;;;;;;5028514;28;20109;-78
2023/03/17 04:36:41;;;;;;;7.40;4.20;;;;;;;;;;5027018;28;20164;-78
2023/03/17 04:39:07;;;;;;;8.20;3.60;;;;;;;;;;5030569;28;20053;-79
2023/03/17 04:41:33;;;;;;;6.30;3.30;;;;;;;;;;5031438;28;20029;-77
2023/03/17 04:43:59;;;;;;;9.45;4.75;;;;;;;;;;5028398;28;20066;-78
2023/03/17 04:46:25;;;;;;;8.57;3.33;;;;;;;;;;5031033;28;20036;-78
2023/03/17 04:48:51;;;;;;;8.38;3.47;;;;;;;;;;5029733;28;20028;-79
2023/03/17 04:51:17;;;;;;;8.65;3.65;;;;;;;;;;5030143;28;20512;-79
2023/03/17 04:53:43;;;;;;;6.47;3.72;;;;;;;;;;5028748;28;20060;-78
2023/03/17 04:56:09;;;;;;;11.07;3.22;;;;;;;;;;5031564;28;20030;-78
2023/03/17 04:58:36;;;;;;;3.00;2.13;;;;;;;;;;5033598;28;20025;-79
2023/03/17 05:01:02;;;;;;;4.15;2.67;;;;;;;;;;5022980;28;20409;-79
2023/03/17 05:03:29;;;;;;;3.42;2.45;;;;;;;;;;5034825;28;20037;-79
2023/03/17 05:05:56;;;;;;;3.30;2.05;;;;;;;;;;5033240;28;20026;-77
2023/03/17 05:08:22;;;;;;;6.97;3.40;;;;;;;;;;5031195;28;20025;-79
2023/03/17 05:10:48;;;;;;;5.95;3.22;;;;;;;;;;5031269;28;20025;-79
2023/03/17 05:13:14;;;;;;;5.00;3.30;;;;;;;;;;5037864;28;20068;-78
2023/03/17 05:15:43;;;;;;;5.43;2.47;;;;;;;;;;5053127;28;20044;-77
2023/03/17 05:18:09;;;;;;;4.65;2.13;;;;;;;;;;5042138;28;20504;-80
2023/03/17 05:20:35;;;;;;;6.88;3.03;;;;;;;;;;5025840;28;20042;-78
2023/03/17 05:23:01;;;;;;;6.53;3.20;;;;;;;;;;5033400;28;20620;-80
2023/03/17 05:25:27;;;;;;;5.10;4.00;;;;;;;;;;5020965;28;20488;-76
2023/03/17 05:27:53;;;;;;;5.85;3.05;;;1.50;99.90;;;;;;5023816;28;20037;-77
2023/03/17 05:30:19;;;;;;;19.42;4.15;;;;;;;;;;5011037;28;22523;-77
2023/03/17 05:32:45;;;;;;;9.75;3.63;;;;;;;;;;5019215;28;20048;-77
2023/03/17 05:35:11;;;;;;;8.05;3.70;;;;;;;;;;5015670;28;20018;-75
2023/03/17 05:37:37;;;;;;;6.78;3.20;;;;;;;;;;5006658;28;20107;-76
2023/03/17 05:40:03;;;;;;;9.85;3.45;;;;;;;;;;5018213;28;20591;-78
2023/03/17 05:42:29;;;;;;;5.53;2.80;;;;;;;;;;5016139;28;20086;-77
2023/03/17 05:44:55;;;;;;;4.93;2.72;;;;;;;;;;5017715;28;20034;-77
2023/03/17 05:47:21;;;;;;;4.97;2.70;;;;;;;;;;5024064;28;20049;-78
2023/03/17 05:49:47;;;;;;;5.93;2.47;;;;;;;;;;5026841;28;20064;-76
2023/03/17 05:52:17;;;;;;;5.65;2.25;;;;;;;;;;5014407;28;20470;-78
2023/03/17 05:54:43;;;;;;;4.53;2.22;;;;;;;;;;5014602;28;20084;-73
2023/03/17 05:57:09;;;;;;;3.78;2.13;;;;;;;;;;5015777;28;20083;-76
2023/03/17 05:59:35;;;;;;;4.45;2.47;;;;;;;;;;5022446;28;20037;-75
2023/03/17 06:02:01;;;;;;;4.63;2.80;;;;;;;;;;5020881;28;20424;-76
2023/03/17 06:04:27;;;;;;;5.80;3.22;;;;;;;;;;5017731;28;20021;-76
2023/03/17 06:06:53;;;;;;;7.28;3.38;;;;;;;;;;5015324;28;20235;-76
2023/03/17 06:09:19;;;;;;;29.83;9.57;;;;;;;;;;5019289;28;20065;-75
2023/03/17 06:11:45;;;;;;;15.43;7.03;;;1.60;99.90;;;;;;5022712;28;20024;-76
2023/03/17 06:14:12;;;;;;;6.30;3.88;;;;;;;;;;5018150;28;20385;-75
2023/03/17 06:16:38;;;;;;;5.65;2.92;;;;;;;;;;5017721;28;20038;-75
2023/03/17 06:19:04;;;;;;;8.18;3.83;;;;;;;;;;5016817;28;20379;-75
2023/03/17 06:21:30;;;;;;;21.75;9.38;;;;;;;;;;5022998;28;20033;-75
2023/03/17 06:23:56;;;;;;;10.48;4.82;;;;;;;;;;5009424;28;20099;-77
2023/03/17 06:26:22;;;;;;;8.57;4.13;;;;;;;;;;5003776;28;20033;-75
2023/03/17 06:28:48;;;;;;;10.52;4.70;;;;;;;;;;5008732;28;20497;-76
2023/03/17 06:31:14;;;;;;;5.00;3.28;;;;;;;;;;5009627;28;20032;-76
2023/03/17 06:33:40;;;;;;;7.53;3.08;;;;;;;;;;5014817;28;20075;-76
2023/03/17 06:36:07;;;;;;;37.63;14.45;;;;;;;;;;5012187;28;20036;-76
2023/03/17 06:38:33;;;;;;;25.17;9.77;;;;;;;;;;5021475;28;20033;-76
2023/03/17 06:40:59;;;;;;;27.17;9.88;;;;;;;;;;5016754;28;20084;-78
2023/03/17 06:43:25;;;;;;;18.70;7.88;;;;;;;;;;5024505;28;20424;-76
2023/03/17 06:45:51;;;;;;;14.77;6.70;;;;;;;;;;5024660;28;20018;-74
2023/03/17 06:48:17;;;;;;;16.58;6.40;;;2.30;99.90;;;;;;5022539;28;20382;-76
2023/03/17 06:50:46;;;;;;;9.68;3.45;;;2.80;99.90;;;;;;5023303;28;20492;-76
2023/03/17 06:53:12;;;;;;;8.35;4.72;;;2.40;99.90;;;;;;5021930;28;20416;-75
2023/03/17 06:55:38;;;;;;;11.43;4.93;;;;;;;;;;5024432;28;20030;-76
2023/03/17 06:58:04;;;;;;;6.15;3.60;;;;;;;;;;5028984;28;20522;-77
2023/03/17 07:00:30;;;;;;;7.40;3.78;;;;;;;;;;5026001;28;20057;-76
2023/03/17 07:02:56;;;;;;;6.95;3.42;;;;;;;;;;5021474;28;20106;-76
2023/03/17 07:05:22;;;;;;;5.60;3.92;;;;;;;;;;5018265;28;20036;-76
2023/03/17 07:07:49;;;;;;;5.45;3.15;;;;;;;;;;5013719;28;20037;-76
2023/03/17 07:10:16;;;;;;;5.43;3.28;;;;;;;;;;5018728;28;20034;-76
2023/03/17 07:12:41;;;;;;;6.18;3.55;;;3.80;99.90;;;;;;5025310;28;20033;-77
2023/03/17 07:15:08;;;;;;;4.90;2.67;;;4.10;99.90;;;;;;5016566;28;20116;-76
2023/03/17 07:17:34;;;;;;;6.93;3.38;;;;;;;;;;5025523;28;20071;-76
2023/03/17 07:20:00;;;;;;;6.18;3.70;;;;;;;;;;5024800;28;20025;-75
2023/03/17 07:22:26;;;;;;;6.20;2.92;;;;;;;;;;5021593;28;20199;-76
2023/03/17 07:24:52;;;;;;;7.97;3.55;;;;;;;;;;5024293;28;20393;-76
2023/03/17 07:27:18;;;;;;;6.28;3.60;;;;;;;;;;5021035;28;20036;-75
2023/03/17 07:29:45;;;;;;;6.68;3.50;;;;;;;;;;5024566;28;20069;-77
2023/03/17 07:32:11;;;;;;;6.22;3.38;;;;;;;;;;5023585;28;20195;-77
2023/03/17 07:34:37;;;;;;;5.18;2.53;;;;;;;;;;5025736;28;20108;-77
2023/03/17 07:37:05;;;;;;;4.72;2.75;;;;;;;;;;5023849;28;20029;-75
2023/03/17 07:39:31;;;;;;;6.78;3.15;;;;;;;;;;5024230;28;20081;-77
2023/03/17 07:42:00;;;;;;;6.47;3.30;;;;;;;;;;5017887;28;20057;-75
2023/03/17 07:44:27;;;;;;;3.60;2.55;;;;;;;;;;5024805;28;20025;-74
2023/03/17 07:46:53;;;;;;;7.15;4.03;;;;;;;;;;5023238;28;20033;-74
2023/03/17 07:49:20;;;;;;;4.75;3.08;;;;;;;;;;5017393;28;20104;-76
2023/03/17 07:51:47;;;;;;;13.07;4.35;;;;;;;;;;5018372;28;20187;-76
2023/03/17 07:54:14;;;;;;;4.43;2.33;;;;;;;;;;5017276;28;20050;-76
2023/03/17 07:56:40;;;;;;;6.90;3.47;;;;;;;;;;5018952;28;20414;-77
2023/03/17 07:59:07;;;;;;;7.13;3.58;;;;;;;;;;5023365;28;20029;-77
2023/03/17 08:01:34;;;;;;;4.70;2.70;;;5.60;99.90;;;;;;5020019;28;20037;-77
2023/03/17 08:04:00;;;;;;;7.38;3.15;;;;;;;;;;5019313;28;20056;-76
2023/03/17 08:06:26;;;;;;;4.82;2.85;;;;;;;;;;5020402;28;20026;-77
2023/03/17 08:08:53;;;;;;;4.53;2.75;;;;;;;;;;5023575;28;20029;-78
2023/03/17 08:11:19;;;;;;;5.20;2.63;;;;;;;;;;5017381;28;20037;-77
2023/03/17 08:13:45;;;;;;;7.32;3.03;;;;;;;;;;5027721;28;20056;-80
2023/03/17 08:16:11;;;;;;;4.32;2.38;;;;;;;;;;5024689;28;20026;-79
2023/03/17 08:18:37;;;;;;;6.40;2.95;;;6.50;99.90;;;;;;5022891;28;20030;-76
2023/03/17 08:21:03;;;;;;;5.55;2.83;;;;;;;;;;5024728;28;20091;-76
2023/03/17 08:23:29;;;;;;;7.10;2.53;;;8.00;99.90;;;;;;5028929;28;20128;-76
2023/03/17 08:25:56;;;;;;;4.55;2.75;;;8.70;99.90;;;;;;5028497;28;20033;-77
2023/03/17 08:28:22;;;;;;;4.30;2.25;;;;;;;;;;5020074;28;20042;-76
2023/03/17 08:30:49;;;;;;;4.57;2.10;;;;;;;;;;5027353;28;20037;-76
2023/03/17 08:33:15;;;;;;;4.63;2.30;;;;;;;;;;5024664;28;20042;-76
2023/03/17 08:35:41;;;;;;;6.35;2.00;;;;;;;;;;5020872;28;20361;-76
2023/03/17 08:38:07;;;;;;;3.38;1.67;;;;;;;;;;5021593;28;20976;-77
2023/03/17 08:40:33;;;;;;;4.15;1.77;;;;;;;;;;5023550;28;20022;-76
2023/03/17 08:43:00;;;;;;;3.28;1.55;;;;;;;;;;5018173;28;20048;-76
2023/03/17 08:45:26;;;;;;;3.53;1.83;;;;;;;;;;5022154;28;20074;-76
2023/03/17 08:47:52;;;;;;;2.90;1.55;;;;;;;;;;5026226;28;20112;-76
2023/03/17 08:50:20;;;;;;;4.88;1.95;;;;;;;;;;5019788;28;20129;-76
2023/03/17 08:52:47;;;;;;;3.88;1.58;;;;;;;;;;5008614;28;20754;-77
2023/03/17 08:55:14;;;;;;;4.70;1.92;;;;;;;;;;5018683;28;20389;-77
2023/03/17 08:57:40;;;;;;;4.35;1.30;;;14.10;99.90;;;;;;5019849;28;20130;-77
2023/03/17 09:00:09;;;;;;;3.00;1.38;;;15.70;99.90;;;;;;5025146;28;20116;-76
2023/03/17 09:02:36;;;;;;;2.30;1.20;;;;;;;;;;5026658;28;20448;-75
2023/03/17 09:05:02;;;;;;;4.57;1.58;;;;;;;;;;5020215;28;20048;-77
2023/03/17 09:07:28;;;;;;;7.25;2.08;;;;;;;;;;5016674;28;20044;-76
2023/03/17 09:09:55;;;;;;;2.50;1.65;;;;;;;;;;5027665;28;20018;-76
2023/03/17 09:12:21;;;;;;;3.50;1.00;;;;;;;;;;5025805;28;20041;-77
2023/03/17 09:14:48;;;;;;;4.03;1.48;;;;;;;;;;5033948;28;20503;-76
2023/03/17 09:17:14;;;;;;;5.55;1.38;;;;;;;;;;5016075;28;20111;-76
2023/03/17 09:19:40;;;;;;;3.22;1.13;;;;;;;;;;5028271;28;20040;-77
2023/03/17 09:22:06;;;;;;;4.63;1.30;;;15.70;83.40;;;;;;5027925;28;20408;-77
2023/03/17 09:24:32;;;;;;;3.88;1.70;;;;;;;;;;5031447;28;20033;-77
2023/03/17 09:27:00;;;;;;;2.25;1.02;;;;;;;;;;5031306;28;20117;-77
2023/03/17 09:29:26;;;;;;;4.32;1.48;;;;;;;;;;5016166;28;20123;-76
2023/03/17 09:31:55;;;;;;;4.70;1.60;;;13.90;90.80;;;;;;5020009;28;20634;-76
2023/03/17 09:34:21;;;;;;;2.20;0.95;;;;;;;;;;5021627;28;20044;-76
2023/03/17 09:36:47;;;;;;;2.15;1.08;;;;;;;;;;5017936;28;20029;-76
2023/03/17 09:39:13;;;;;;;4.45;1.52;;;;;;;;;;5020956;28;20397;-75
2023/03/17 09:41:40;;;;;;;3.00;1.13;;;;;;;;;;5018968;28;20526;-76
2023/03/17 09:44:27;;;;;;;2.00;0.93;;;12.60;91.90;;;;;;5024041;28;20057;-76
2023/03/17 09:46:53;;;;;;;2.35;1.00;;;;;;;;;;5024794;28;20044;-76
2023/03/17 09:49:24;;;;;;;3.58;1.33;;;10.80;93.50;;;;;;5026078;28;20021;-75
2023/03/17 09:51:50;;;;;;;1.20;0.75;;;;;;;;;;5027194;28;20061;-76
2023/03/17 09:54:24;;;;;;;3.33;1.60;;;13.10;95.30;;;;;;5022352;28;20276;-77
2023/03/17 09:56:57;;;;;;;2.13;1.35;;;;;;;;;;5028235;28;20017;-76
2023/03/17 09:59:40;;;;;;;1.95;0.90;;;13.10;95.40;;;;;;5017904;28;20037;-76
2023/03/17 10:02:18;;;;;;;1.95;1.00;;;;;;;;;;5017620;28;20041;-76
2023/03/17 10:04:45;;;;;;;2.45;1.30;;;12.70;99.90;;;;;;5024983;28;20048;-75
2023/03/17 10:07:15;;;;;;;1.73;1.08;;;;;;;;;;5024272;28;20026;-76
2023/03/17 10:10:02;;;;;;;6.97;0.95;;;13.70;93.80;;;;;;5019496;28;20041;-76
2023/03/17 10:12:38;;;;;;;1.77;0.88;;;13.80;93.70;;;;;;5017239;28;20041;-76
2023/03/17 10:15:11;;;;;;;1.65;0.70;;;;;;;;;;5017025;28;20029;-75
2023/03/17 10:17:41;;;;;;;2.78;1.13;;;13.40;94.10;;;;;;5024077;28;20315;-76
2023/03/17 10:20:10;;;;;;;6.70;1.70;;;;;;;;;;5025975;28;20113;-76
2023/03/17 10:22:47;;;;;;;2.45;0.82;;;;;;;;;;5026531;28;20033;-76
2023/03/17 10:25:21;;;;;;;1.45;0.55;;;13.90;92.60;;;;;;5025897;28;20041;-76
2023/03/17 10:27:56;;;;;;;5.03;0.82;;;13.90;92.50;;;;;;5018708;28;20072;-76
2023/03/17 10:30:22;;;;;;;2.25;0.70;;;;;;;;;;5023067;28;20029;-76
2023/03/17 10:32:50;;;;;;;1.42;0.70;;;;;;;;;;5020466;28;20661;-76
2023/03/17 10:35:17;;;;;;;2.03;0.85;;;;;;;;;;5027835;28;20041;-77
2023/03/17 10:37:45;;;;;;;1.20;0.70;;;14.20;92.10;;;;;;5012983;28;20496;-76
2023/03/17 10:40:27;;;;;;;1.80;0.95;;;15.30;93.20;;;;;;5016741;28;20776;-76
2023/03/17 10:43:06;;;;;;;0.90;0.60;;;14.30;90.30;;;;;;5021179;28;20117;-76
2023/03/17 10:45:34;;;;;;;1.45;0.60;;;15.40;90.50;;;;;;5018322;28;20175;-76
2023/03/17 10:48:03;;;;;;;2.10;0.90;;;14.70;89.50;;;;;;5022487;28;20036;-76
2023/03/17 10:50:32;;;;;;;1.75;0.75;;;15.20;89.60;;;;;;5014744;28;20109;-75
2023/03/17 10:53:03;;;;;;;4.10;1.13;;;15.80;91.90;;;;;;5022296;28;20136;-76
2023/03/17 10:55:37;;;;;;;1.90;0.93;;;14.90;88.20;;;;;;5024356;28;20103;-77
2023/03/17 10:58:12;;;;;;;2.17;1.10;;;;;;;;;;5022719;28;20115;-76
2023/03/17 11:00:38;;;;;;;2.75;0.65;;;;;;;;;;5022183;28;20528;-76
2023/03/17 11:03:22;;;;;;;2.47;0.68;;;15.00;90.00;;;;;;5025008;28;20029;-75
2023/03/17 11:06:01;;;;;;;0.80;0.47;;;;;;;;;;5020153;28;20025;-76
2023/03/17 11:08:32;;;;;;;4.10;0.85;;;15.90;90.10;;;;;;5017991;28;20029;-76
2023/03/17 11:10:58;;;;;;;3.08;1.05;;;;;;;;;;5019843;28;20489;-76
2023/03/17 11:13:29;;;;;;;3.70;0.95;;;15.00;89.60;;;;;;5016461;28;20463;-76
2023/03/17 11:16:16;;;;;;;3.17;0.63;;;16.00;90.10;;;;;;5016652;28;20120;-76
2023/03/17 11:18:42;;;;;;;3.40;0.50;;;16.30;97.30;;;;;;5018369;28;20029;-76
2023/03/17 11:21:15;;;;;;;1.40;0.65;;;;;;;;;;5018342;28;20095;-75
2023/03/17 11:24:21;;;;;;;2.13;0.88;;;15.20;86.50;;;;;;5012305;28;20310;-77
2023/03/17 11:27:05;;;;;;;2.28;0.60;;;15.80;86.20;;;;;;5015097;28;20033;-76
2023/03/17 11:29:39;;;;;;;3.47;0.88;;;16.20;97.00;;;;;;5026260;28;20111;-76
2023/03/17 11:32:27;;;;;;;1.58;0.60;;;16.20;90.00;;;;;;5021739;28;20053;-76
2023/03/17 11:35:23;;;;;;;2.92;0.57;;;16.40;85.40;;;;;;5018174;28;20160;-76
2023/03/17 11:38:04;;;;;;;1.00;0.43;;;;;;;;;;5016061;28;20075;-76
2023/03/17 11:40:30;;;;;;;0.93;0.55;;;;;;;;;;5018590;28;20032;-76
2023/03/17 11:43:19;;;;;;;1.70;0.65;;;16.70;87.00;;;;;;5021549;28;20025;-77
2023/03/17 11:45:56;;;;;;;0.98;0.47;;;16.70;85.30;;;;;;5021764;28;20519;-76
2023/03/17 11:48:22;;;;;;;0.95;0.40;;;;;;;;;;5024365;28;20040;-77
2023/03/17 11:51:05;;;;;;;0.55;0.40;;;16.80;88.70;;;;;;5023691;28;20036;-77
2023/03/17 11:53:46;;;;;;;;;;;17.00;85.80;;;;;;5022255;28;20088;-76
2023/03/17 11:56:17;;;;;;;1.25;0.70;;;;;;;;;;5017197;28;19924;-76
2023/03/17 11:58:47;;;;;;;1.00;0.50;;;17.50;86.70;;;;;;5022814;28;20029;-77
2023/03/17 12:01:18;;;;;;;2.70;0.60;;;16.90;94.40;;;;;;5015995;28;20116;-78
2023/03/17 12:04:08;;;;;;;0.88;0.50;;;;;;;;;;5016198;28;20085;-79
2023/03/17 12:06:42;;;;;;;0.65;0.32;;;17.00;86.60;;;;;;5024356;28;20033;-77
2023/03/17 12:09:28;;;;;;;1.88;0.73;;;;;;;;;;5017280;28;20036;-76
2023/03/17 12:11:55;;;;;;;1.05;0.50;;;;;;;;;;5006379;28;20038;-77
2023/03/17 12:14:29;;;;;;;4.30;0.70;;;17.70;95.70;;;;;;5014740;28;20363;-77
2023/03/17 12:17:00;;;;;;;2.88;0.60;;;;;;;;;;5012710;28;20478;-76
2023/03/17 12:19:35;;;;;;;6.43;1.45;;;17.10;85.90;;;;;;5009816;28;20026;-76
2023/03/17 12:22:10;;;;;;;4.63;1.80;;;17.40;84.90;;;;;;5015737;28;20715;-79
2023/03/17 12:24:42;;;;;;;5.95;1.45;;;;;;;;;;5018543;28;20167;-78
2023/03/17 12:27:08;;;;;;;8.80;4.22;;;;;;;;;;5013478;28;20030;-79
2023/03/17 12:29:55;;;;;;;1.90;1.00;;;17.50;83.40;;;;;;5019938;28;20058;-77
2023/03/17 12:32:35;;;;;;;0.73;0.50;;;17.90;82.50;;;;;;5015309;28;20075;-77
2023/03/17 12:35:30;;;;;;;1.15;0.40;;;17.70;82.50;;;;;;5018386;28;20428;-76
2023/03/17 12:37:58;;;;;;;1.83;0.60;;;17.50;81.80;;;;;;5025741;28;20084;-76
2023/03/17 12:40:33;;;;;;;1.55;0.60;;;17.90;82.70;;;;;;5030488;28;20038;-74
2023/03/17 12:43:17;;;;;;;1.77;0.55;;;17.40;79.50;;;;;;5027532;28;20025;-74
2023/03/17 12:46:01;;;;;;;1.63;0.70;;;;;;;;;;5024596;28;20109;-77
2023/03/17 12:48:47;;;;;;;0.93;0.38;;;;;;;;;;5023306;28;20033;-77
2023/03/17 12:51:22;;;;;;;1.20;0.60;;;;;;;;;;5021447;28;20079;-76
2023/03/17 12:53:49;;;;;;;4.22;0.77;;;18.80;80.50;;;;;;5019716;28;20086;-75
2023/03/17 12:56:33;;;;;;;1.42;0.75;;;18.90;75.20;;;;;;5022481;28;20029;-75
2023/03/17 12:59:18;;;;;;;1.00;0.50;;;18.40;79.80;;;;;;5022243;28;20433;-76
2023/03/17 13:02:14;;;;;;;1.02;0.50;;;18.80;76.60;;;;;;5014664;28;20140;-77
2023/03/17 13:04:59;;;;;;;1.00;0.52;;;20.00;76.40;;;;;;5018297;28;20037;-76
2023/03/17 13:07:45;;;;;;;1.60;0.40;;;19.70;77.20;;;;;;5020574;28;20112;-82
2023/03/17 13:10:20;;;;;;;2.67;0.85;;;19.10;92.00;;;;;;5023253;28;20673;-78
2023/03/17 13:12:46;;;;;;;2.70;0.47;;;;;;;;;;5023071;28;20042;-78
2023/03/17 13:15:47;;;;;;;2.28;0.80;;;;;;;;;;5021888;28;20028;-77
2023/03/17 13:18:15;;;;;;;1.05;0.32;;;19.20;86.20;;;;;;5027653;28;20040;-78
2023/03/17 13:20:42;;;;;;;4.10;0.40;;;;;;;;;;5016144;28;20018;-75
2023/03/17 13:23:10;;;;;;;1.67;0.47;;;19.50;78.80;;;;;;5027653;28;20017;-76
2023/03/17 13:25:40;;;;;;;0.90;0.47;;;19.00;90.60;;;;;;5022467;28;20120;-78
2023/03/17 13:28:11;;;;;;;1.35;0.30;;;19.60;72.10;;;;;;5014533;28;20025;-76
2023/03/17 13:30:37;;;;;;;3.35;0.60;;;;;;;;;;5025772;28;20025;-77
2023/03/17 13:33:09;;;;;;;2.67;0.63;;;14.50;70.00;;;;;;5022353;28;20100;-76
2023/03/17 13:35:46;;;;;;;2.33;0.30;;;19.20;74.40;;;;;;5023033;28;20378;-76
2023/03/17 13:38:45;;;;;;;0.65;0.40;;;19.80;74.50;;;;;;5018831;28;20443;-78
2023/03/17 13:41:16;;;;;;;1.60;0.43;;;19.10;74.70;;;;;;5009649;28;20038;-79
2023/03/17 13:44:02;;;;;;;0.82;0.50;;;18.80;74.40;;;;;;5019788;28;20112;-76
2023/03/17 13:46:40;;;;;;;1.27;0.65;;;19.30;72.30;;;;;;5025462;28;20025;-77
2023/03/17 13:49:23;;;;;;;2.88;0.80;;;20.00;72.40;;;;;;5021312;28;20033;-85
2023/03/17 13:51:57;;;;;;;4.72;1.60;;;;;;;;;;5018785;28;20034;-77
2023/03/17 13:54:25;;;;;;;1.27;0.38;;;19.40;87.60;;;;;;5019403;28;20041;-82
2023/03/17 13:56:53;;;;;;;0.98;0.45;;;20.20;71.70;;;;;;5013459;28;20025;-77
2023/03/17 13:59:32;;;;;;;2.50;0.65;;;;;;;;;;5011414;28;20500;-77
2023/03/17 14:02:15;;;;;;;1.90;0.75;;;;;;;;;;5023039;28;20064;-80
2023/03/17 14:05:02;;;;;;;1.33;0.70;;;;;;;;;;5019249;28;20041;-78
2023/03/17 14:07:38;;;;;;;1.77;0.70;;;19.30;72.00;;;;;;5017736;28;20044;-78
2023/03/17 14:10:04;;;;;;;2.90;0.65;;;;;;;;;;5014103;28;20037;-77
2023/03/17 14:12:43;;;;;;;1.40;0.38;;;18.90;72.00;;;;;;5019228;28;20072;-77
2023/03/17 14:15:18;;;;;;;1.02;0.60;;;;;;;;;;5021978;28;20029;-80
2023/03/17 14:17:48;;;;;;;1.65;0.43;;;;;;;;;;5019998;28;20116;-78
2023/03/17 14:20:17;;;;;;;2.50;0.60;;;18.90;70.20;;;;;;5024864;28;20028;-78
2023/03/17 14:22:44;;;;;;;1.30;0.60;;;;;;;;;;5034039;28;20048;-76